Time;durP1;ratioP1;P1;durP2;ratioP2;P2;SDS_P1;SDS_P2;PMS_P1;PMS_P2;Temp;Humidity;BMP_temperature;BMP_pressure;BME280_temperature;BME280_humidity;BME280_pressure;Samples;Min_cycle;Max_cycle;Signal;HPM_P1;HPM_P2
2022/03/29 00:02:01;;;;;;;26.27;12.47;;;7.40;99.90;;;;;;5026905;28;20045;-67
2022/03/29 00:04:28;;;;;;;;;;;7.40;99.90;;;;;;5012609;28;20049;-67
2022/03/29 00:06:54;;;;;;;18.23;10.45;;;7.40;99.90;;;;;;5025647;28;19917;-75
2022/03/29 00:09:20;;;;;;;22.13;11.27;;;7.40;99.90;;;;;;5028799;28;20045;-67
2022/03/29 00:11:47;;;;;;;24.00;11.13;;;7.40;99.90;;;;;;5011681;28;20042;-69
2022/03/29 00:14:13;;;;;;;23.80;11.63;;;7.40;99.90;;;;;;5025155;28;20065;-67
2022/03/29 00:16:39;;;;;;;20.77;11.13;;;7.40;99.90;;;;;;5008960;28;20084;-67
2022/03/29 00:19:05;;;;;;;20.65;10.90;;;7.40;99.90;;;;;;4987688;28;20045;-67
2022/03/29 00:21:31;;;;;;;22.70;11.20;;;7.40;99.90;;;;;;5024195;28;20120;-67
2022/03/29 00:23:57;;;;;;;25.65;12.07;;;7.40;99.90;;;;;;5026673;28;20129;-67
2022/03/29 00:26:23;;;;;;;26.02;12.10;;;7.40;99.90;;;;;;5003695;28;20512;-67
2022/03/29 00:28:48;;;;;;;23.53;12.10;;;7.40;99.90;;;;;;5024634;28;20450;-67
2022/03/29 00:31:19;;;;;;;21.30;11.87;;;7.40;99.90;;;;;;5000145;28;20125;-67
2022/03/29 00:33:49;;;;;;;24.10;11.50;;;7.40;99.90;;;;;;5003989;28;20037;-67
2022/03/29 00:36:15;;;;;;;21.67;12.02;;;7.50;99.90;;;;;;5005273;28;20407;-70
2022/03/29 00:38:42;;;;;;;19.60;11.57;;;7.50;99.90;;;;;;5004708;28;20410;-67
2022/03/29 00:41:07;;;;;;;24.05;11.18;;;7.50;99.90;;;;;;5007684;28;20087;-68
2022/03/29 00:43:33;;;;;;;25.65;12.00;;;7.50;99.90;;;;;;5004590;28;20057;-68
2022/03/29 00:45:59;;;;;;;26.50;11.70;;;7.50;99.90;;;;;;5014962;28;20091;-67
2022/03/29 00:48:25;;;;;;;20.57;11.20;;;7.50;99.90;;;;;;5014311;28;20044;-67
2022/03/29 00:50:53;;;;;;;22.75;11.20;;;7.50;99.90;;;;;;5001761;28;20044;-68
2022/03/29 00:53:20;;;;;;;21.83;11.18;;;7.50;99.90;;;;;;5008726;28;20074;-68
2022/03/29 00:55:48;;;;;;;21.90;11.02;;;7.50;99.90;;;;;;5013996;28;20145;-67
2022/03/29 00:58:15;;;;;;;26.15;11.15;;;7.50;99.90;;;;;;5015368;28;20120;-68
2022/03/29 01:00:42;;;;;;;20.13;10.55;;;7.50;99.90;;;;;;5008234;28;20116;-67
2022/03/29 01:03:07;;;;;;;24.67;10.95;;;7.50;99.90;;;;;;4999970;28;20294;-67
2022/03/29 01:05:33;;;;;;;19.73;10.17;;;7.50;99.90;;;;;;5007774;28;20056;-68
2022/03/29 01:08:00;;;;;;;17.42;9.90;;;7.50;99.90;;;;;;5011217;28;20065;-67
2022/03/29 01:10:26;;;;;;;19.90;10.40;;;7.50;99.90;;;;;;5005077;28;20041;-68
2022/03/29 01:12:54;;;;;;;20.33;10.70;;;7.50;99.90;;;;;;5007773;28;20051;-68
2022/03/29 01:15:23;;;;;;;20.55;10.02;;;7.50;99.90;;;;;;5021648;28;20034;-67
2022/03/29 01:17:49;;;;;;;20.95;10.07;;;7.50;99.90;;;;;;4993917;28;20379;-67
2022/03/29 01:20:18;;;;;;;23.92;11.43;;;7.50;99.90;;;;;;5002164;28;20084;-67
2022/03/29 01:22:45;;;;;;;22.77;9.85;;;7.60;99.90;;;;;;5015989;28;20033;-67
2022/03/29 01:25:19;;;;;;;21.10;11.27;;;7.60;99.90;;;;;;5007223;28;20053;-68
2022/03/29 01:27:47;;;;;;;23.35;11.27;;;7.60;99.90;;;;;;5018184;28;20076;-70
2022/03/29 01:30:14;;;;;;;19.15;10.32;;;7.60;99.90;;;;;;5015204;28;20125;-67
2022/03/29 01:32:43;;;;;;;23.83;11.35;;;7.50;99.90;;;;;;5002960;28;20045;-67
2022/03/29 01:35:09;;;;;;;22.88;11.38;;;7.50;99.90;;;;;;5018129;28;20416;-67
2022/03/29 01:37:35;;;;;;;24.80;10.98;;;7.50;99.90;;;;;;5001994;28;20048;-68
2022/03/29 01:40:09;;;;;;;22.50;10.98;;;7.50;99.90;;;;;;4999269;28;20041;-68
2022/03/29 01:42:38;;;;;;;19.97;10.93;;;7.50;99.90;;;;;;4999979;28;20041;-67
2022/03/29 01:45:04;;;;;;;23.00;11.63;;;7.60;99.90;;;;;;5020698;28;20037;-67
2022/03/29 01:47:29;;;;;;;22.85;10.80;;;7.50;99.90;;;;;;5019793;28;20045;-67
2022/03/29 01:49:55;;;;;;;22.83;11.03;;;7.50;99.90;;;;;;5006111;28;20044;-68
2022/03/29 01:52:21;;;;;;;20.83;10.97;;;7.50;99.90;;;;;;5001870;28;20053;-68
2022/03/29 01:54:47;;;;;;;27.40;13.17;;;7.50;99.90;;;;;;5003543;28;20788;-67
2022/03/29 01:57:12;;;;;;;25.27;12.50;;;7.50;99.90;;;;;;5020663;28;20034;-67
2022/03/29 02:02:23;;;;;;;24.77;11.68;;;7.50;99.90;;;;;;5006867;28;20041;-68
2022/03/29 02:04:48;;;;;;;21.97;11.83;;;7.50;99.90;;;;;;5019640;28;20493;-70
2022/03/29 02:07:16;;;;;;;25.53;10.90;;;7.50;99.90;;;;;;5007321;28;20065;-72
2022/03/29 02:09:42;;;;;;;23.75;10.65;;;7.50;99.90;;;;;;5021193;28;20041;-71
2022/03/29 02:12:12;;;;;;;23.08;11.23;;;7.50;99.90;;;;;;5006376;28;20053;-70
2022/03/29 02:14:38;;;;;;;19.35;10.57;;;7.50;99.90;;;;;;5006610;28;20045;-69
2022/03/29 02:17:04;;;;;;;;;;;7.50;99.90;;;;;;5001004;28;20038;-72
2022/03/29 02:19:30;;;;;;;19.08;9.80;;;7.50;99.90;;;;;;5019651;28;19997;-70
2022/03/29 02:21:55;;;;;;;22.43;11.83;;;7.40;99.90;;;;;;5023857;28;20046;-70
2022/03/29 02:24:21;;;;;;;23.03;10.73;;;7.50;99.90;;;;;;4988738;28;20034;-69
2022/03/29 02:26:47;;;;;;;22.57;10.53;;;7.50;99.90;;;;;;5021392;28;20434;-70
2022/03/29 02:29:12;;;;;;;19.27;9.50;;;7.50;99.90;;;;;;5021923;28;20204;-71
2022/03/29 02:31:38;;;;;;;20.63;9.87;;;7.50;99.90;;;;;;5001589;28;20080;-69
2022/03/29 02:34:03;;;;;;;30.37;11.60;;;7.40;99.90;;;;;;5013449;28;20042;-70
2022/03/29 02:36:29;;;;;;;24.43;10.57;;;7.50;99.90;;;;;;5023956;28;20045;-71
2022/03/29 02:38:55;;;;;;;22.87;11.07;;;7.50;99.90;;;;;;5025860;28;20044;-70
2022/03/29 02:41:20;;;;;;;25.43;10.23;;;7.50;99.90;;;;;;5018813;28;20068;-70
2022/03/29 02:43:48;;;;;;;24.20;11.17;;;7.50;99.90;;;;;;5021158;28;20037;-70
2022/03/29 02:46:14;;;;;;;22.10;10.77;;;7.50;99.90;;;;;;5005430;28;20486;-70
2022/03/29 02:48:39;;;;;;;23.57;11.60;;;7.50;99.90;;;;;;5022467;28;20130;-70
2022/03/29 02:51:05;;;;;;;19.33;9.90;;;7.40;99.90;;;;;;5004747;28;20045;-70
2022/03/29 02:53:31;;;;;;;20.97;9.77;;;7.40;99.90;;;;;;5022018;28;20068;-70
2022/03/29 02:55:56;;;;;;;20.30;10.17;;;7.40;99.90;;;;;;5003753;28;20045;-70
2022/03/29 02:58:22;;;;;;;21.73;11.07;;;7.40;99.90;;;;;;4998787;28;20041;-71
2022/03/29 03:00:48;;;;;;;19.77;10.47;;;7.50;99.90;;;;;;4995403;28;20041;-70
2022/03/29 03:03:14;;;;;;;20.65;9.95;;;7.40;99.90;;;;;;5027234;28;20042;-70
2022/03/29 03:05:40;;;;;;;25.40;12.10;;;7.40;99.90;;;;;;5018506;28;20044;-70
2022/03/29 03:08:05;;;;;;;25.23;11.23;;;7.40;99.90;;;;;;4996030;28;20045;-70
2022/03/29 03:10:31;;;;;;;21.97;9.90;;;7.40;99.90;;;;;;5004857;28;20041;-70
2022/03/29 03:12:57;;;;;;;22.95;11.20;;;7.40;99.90;;;;;;5006795;28;20054;-69
2022/03/29 03:15:25;;;;;;;24.75;13.10;;;7.40;99.90;;;;;;5024799;28;20746;-68
2022/03/29 03:17:54;;;;;;;30.55;11.68;;;7.40;99.90;;;;;;5019796;28;20542;-69
2022/03/29 03:20:21;;;;;;;22.33;11.02;;;7.40;99.90;;;;;;5000702;28;20046;-69
2022/03/29 03:22:47;;;;;;;34.42;11.90;;;7.30;99.90;;;;;;5006184;28;20041;-69
2022/03/29 03:25:13;;;;;;;26.00;11.57;;;7.30;99.90;;;;;;5019728;28;20038;-68
2022/03/29 03:27:40;;;;;;;20.27;11.07;;;7.30;99.90;;;;;;5027276;28;20053;-68
2022/03/29 03:30:12;;;;;;;26.05;11.25;;;7.30;99.90;;;;;;5014888;28;20049;-69
2022/03/29 03:32:39;;;;;;;28.75;11.05;;;7.30;99.90;;;;;;5001542;28;20546;-68
2022/03/29 03:35:05;;;;;;;;;;;7.30;99.90;;;;;;4999401;28;20414;-68
2022/03/29 03:37:31;;;;;;;25.73;11.05;;;7.30;99.90;;;;;;4999432;28;20384;-69
2022/03/29 03:39:56;;;;;;;21.83;10.77;;;7.30;99.90;;;;;;4995723;28;20049;-69
2022/03/29 03:42:22;;;;;;;27.23;10.37;;;7.30;99.90;;;;;;5027803;28;20409;-69
2022/03/29 03:44:48;;;;;;;20.90;10.38;;;7.30;99.90;;;;;;5022793;28;20084;-69
2022/03/29 03:47:13;;;;;;;25.17;11.43;;;7.30;99.90;;;;;;5019232;28;20105;-68
2022/03/29 03:49:39;;;;;;;24.90;11.43;;;7.30;99.90;;;;;;5008287;28;20110;-69
2022/03/29 03:52:07;;;;;;;28.43;12.40;;;7.30;99.90;;;;;;5018079;28;20076;-69
2022/03/29 03:54:34;;;;;;;22.88;11.43;;;7.30;99.90;;;;;;5004980;28;20128;-68
2022/03/29 03:56:59;;;;;;;28.27;12.02;;;7.30;99.90;;;;;;4984302;28;20096;-69
2022/03/29 03:59:25;;;;;;;28.23;11.70;;;7.30;99.90;;;;;;5000103;28;20133;-69
2022/03/29 04:01:51;;;;;;;30.00;12.27;;;7.20;99.90;;;;;;4998897;28;20041;-68
2022/03/29 04:04:16;;;;;;;27.00;11.73;;;7.20;99.90;;;;;;5000328;28;20061;-68
2022/03/29 04:06:42;;;;;;;28.90;11.40;;;7.20;99.90;;;;;;5004698;28;20063;-68
2022/03/29 04:09:07;;;;;;;23.43;12.93;;;7.20;99.90;;;;;;4997297;28;20671;-68
2022/03/29 04:11:33;;;;;;;25.17;12.73;;;7.20;99.90;;;;;;5013161;28;20091;-69
2022/03/29 04:13:59;;;;;;;28.73;11.90;;;7.20;99.90;;;;;;5021278;28;20486;-68
2022/03/29 04:16:25;;;;;;;29.03;12.30;;;7.20;99.90;;;;;;5019107;28;20041;-68
2022/03/29 04:18:51;;;;;;;26.35;12.18;;;7.20;99.90;;;;;;5011518;28;20056;-69
2022/03/29 04:21:17;;;;;;;27.17;11.88;;;7.20;99.90;;;;;;5000945;28;20025;-69
2022/03/29 04:23:43;;;;;;;27.03;12.67;;;7.30;99.90;;;;;;5005257;28;20046;-69
2022/03/29 04:26:08;;;;;;;22.90;11.70;;;7.30;99.90;;;;;;5025485;28;20301;-68
2022/03/29 04:28:34;;;;;;;26.47;12.60;;;7.20;99.90;;;;;;5024683;28;20128;-68
2022/03/29 04:31:00;;;;;;;26.10;13.30;;;7.30;99.90;;;;;;5003919;28;20517;-74
2022/03/29 04:33:26;;;;;;;31.20;12.57;;;7.30;99.90;;;;;;5006892;28;20666;-71
2022/03/29 04:35:52;;;;;;;23.27;12.38;;;7.30;99.90;;;;;;5027216;28;20127;-71
2022/03/29 04:38:17;;;;;;;30.47;12.03;;;7.20;99.90;;;;;;4992374;28;20085;-68
2022/03/29 04:40:43;;;;;;;29.00;12.50;;;7.20;99.90;;;;;;5017113;28;20065;-73
2022/03/29 04:43:09;;;;;;;27.97;12.93;;;7.20;99.90;;;;;;5008984;28;20037;-68
2022/03/29 04:45:34;;;;;;;27.33;12.93;;;7.30;99.90;;;;;;4997305;28;20037;-69
2022/03/29 04:48:00;;;;;;;28.10;12.17;;;7.20;99.90;;;;;;5005956;28;20042;-69
2022/03/29 04:50:26;;;;;;;27.53;11.50;;;7.30;99.90;;;;;;5020343;28;20049;-68
2022/03/29 04:52:52;;;;;;;26.05;12.15;;;7.20;99.90;;;;;;5005316;28;20496;-69
2022/03/29 04:55:18;;;;;;;34.03;13.80;;;7.30;99.90;;;;;;5006606;28;20034;-69
2022/03/29 04:57:47;;;;;;;31.15;13.45;;;7.30;99.90;;;;;;4993492;28;20055;-69
2022/03/29 05:00:16;;;;;;;25.27;12.75;;;7.20;99.90;;;;;;5001687;28;20049;-69
2022/03/29 05:02:43;;;;;;;38.58;15.55;;;7.20;99.90;;;;;;5015478;28;20056;-69
2022/03/29 05:05:10;;;;;;;32.00;13.30;;;7.20;99.90;;;;;;5024941;28;21379;-69
2022/03/29 05:07:37;;;;;;;31.90;14.50;;;7.20;99.90;;;;;;5012696;28;20068;-69
2022/03/29 05:10:04;;;;;;;32.92;14.07;;;7.20;99.90;;;;;;5014392;28;20068;-69
2022/03/29 05:12:30;;;;;;;29.70;13.90;;;7.20;99.90;;;;;;4996084;28;20184;-70
2022/03/29 05:14:59;;;;;;;30.25;13.75;;;7.20;99.90;;;;;;5020355;28;20038;-69
2022/03/29 05:17:24;;;;;;;33.55;12.90;;;7.20;99.90;;;;;;5005699;28;20052;-69
2022/03/29 05:19:50;;;;;;;30.67;13.60;;;7.20;99.90;;;;;;4988905;28;20041;-68
2022/03/29 05:22:15;;;;;;;30.40;12.97;;;7.20;99.90;;;;;;5026628;28;20124;-69
2022/03/29 05:24:41;;;;;;;30.13;13.47;;;7.20;99.90;;;;;;5005508;28;20092;-69
2022/03/29 05:27:06;;;;;;;26.83;12.10;;;7.20;99.90;;;;;;5025249;28;20069;-69
2022/03/29 05:29:32;;;;;;;26.57;12.80;;;7.20;99.90;;;;;;5019872;28;20088;-69
2022/03/29 05:31:59;;;;;;;29.80;12.07;;;7.20;99.90;;;;;;5017822;28;20045;-68
2022/03/29 05:34:24;;;;;;;30.63;13.95;;;7.20;99.90;;;;;;5022762;28;20056;-68
2022/03/29 05:36:50;;;;;;;32.57;13.90;;;7.20;99.90;;;;;;5002887;28;20037;-68
2022/03/29 05:39:16;;;;;;;32.33;14.48;;;7.20;99.90;;;;;;5005135;28;20042;-68
2022/03/29 05:41:43;;;;;;;28.63;13.07;;;7.20;99.90;;;;;;5100587;22;20065;-68
2022/03/29 05:44:09;;;;;;;32.92;14.38;;;7.20;99.90;;;;;;5005937;28;20065;-70
2022/03/29 05:49:21;;;;;;;35.40;13.65;;;7.20;99.90;;;;;;5014974;28;20045;-66
2022/03/29 05:51:49;;;;;;;26.52;13.80;;;7.20;99.90;;;;;;5028016;28;20125;-67
2022/03/29 05:54:16;;;;;;;34.28;12.98;;;7.20;99.90;;;;;;5046095;28;20111;-67
2022/03/29 05:56:41;;;;;;;28.23;13.82;;;7.30;99.90;;;;;;5046668;28;20083;-67
2022/03/29 05:59:07;;;;;;;28.33;13.37;;;7.30;99.90;;;;;;5029307;28;20036;-67
2022/03/29 06:01:33;;;;;;;29.50;14.37;;;7.30;99.90;;;;;;5024671;28;20033;-66
2022/03/29 06:03:58;;;;;;;27.97;13.43;;;7.30;99.90;;;;;;5046152;28;20056;-66
2022/03/29 06:06:24;;;;;;;31.43;13.90;;;7.30;99.90;;;;;;5046297;28;20110;-67
2022/03/29 06:08:50;;;;;;;33.03;13.53;;;7.30;99.90;;;;;;5040210;28;20168;-67
2022/03/29 06:11:16;;;;;;;32.53;14.73;;;7.30;99.90;;;;;;5043232;28;20652;-67
2022/03/29 06:13:42;;;;;;;;;;;7.30;99.90;;;;;;5044416;28;20060;-67
2022/03/29 06:16:08;;;;;;;31.65;13.93;;;7.30;99.90;;;;;;5041008;28;19917;-67
2022/03/29 06:18:33;;;;;;;28.97;13.50;;;7.40;99.90;;;;;;5022991;28;20041;-67
2022/03/29 06:20:59;;;;;;;28.60;13.93;;;7.30;99.90;;;;;;5044341;28;20037;-67
2022/03/29 06:23:25;;;;;;;34.40;15.50;;;7.30;99.90;;;;;;5026102;28;20116;-71
2022/03/29 06:25:50;;;;;;;31.67;14.90;;;7.40;99.90;;;;;;5042913;28;20097;-67
2022/03/29 06:28:17;;;;;;;37.37;15.17;;;7.40;99.90;;;;;;5045652;28;20036;-67
2022/03/29 06:30:44;;;;;;;32.28;15.13;;;7.40;99.90;;;;;;5043518;28;20037;-66
2022/03/29 06:33:10;;;;;;;31.25;14.45;;;7.40;99.90;;;;;;5044689;28;20041;-67
2022/03/29 06:35:38;;;;;;;29.63;13.35;;;7.40;99.90;;;;;;5044765;28;20175;-66
2022/03/29 06:38:05;;;;;;;30.70;14.65;;;7.50;99.90;;;;;;5025889;28;20509;-67
2022/03/29 06:40:32;;;;;;;35.40;14.35;;;7.50;99.90;;;;;;5045800;28;20481;-67
2022/03/29 06:42:57;;;;;;;32.83;15.65;;;7.50;99.90;;;;;;5043711;28;20044;-67
2022/03/29 06:45:24;;;;;;;28.37;13.03;;;7.60;99.90;;;;;;5038887;28;20469;-66
2022/03/29 06:47:50;;;;;;;32.25;14.23;;;7.60;99.90;;;;;;5040053;28;20431;-67
2022/03/29 06:50:16;;;;;;;34.10;15.13;;;7.60;99.90;;;;;;5047082;28;20137;-66
2022/03/29 06:52:45;;;;;;;36.08;15.35;;;7.50;99.90;;;;;;5023183;28;20182;-67
2022/03/29 06:55:13;;;;;;;31.38;15.68;;;7.60;99.90;;;;;;5049484;28;20473;-67
2022/03/29 06:57:39;;;;;;;33.75;14.77;;;7.60;99.90;;;;;;5047082;28;20499;-67
2022/03/29 07:00:06;;;;;;;32.40;16.00;;;7.60;99.90;;;;;;5024037;28;20075;-65
2022/03/29 07:02:33;;;;;;;33.50;13.73;;;7.60;99.90;;;;;;5040416;28;20045;-66
2022/03/29 07:04:59;;;;;;;34.08;15.45;;;7.60;99.90;;;;;;5048496;28;20036;-67
2022/03/29 07:07:25;;;;;;;31.67;15.07;;;7.70;99.90;;;;;;5051960;28;20037;-66
2022/03/29 07:12:47;;;;;;;29.63;14.10;;;7.70;99.90;;;;;;5040528;28;20513;-67
2022/03/29 07:15:13;;;;;;;32.22;15.88;;;7.70;99.90;;;;;;5036653;28;20073;-67
2022/03/29 07:17:39;;;;;;;37.78;16.83;;;7.70;99.90;;;;;;5046539;28;20080;-66
2022/03/29 07:20:05;;;;;;;32.53;15.17;;;7.70;99.90;;;;;;5029303;28;20482;-67
2022/03/29 07:22:31;;;;;;;37.55;14.85;;;7.80;99.90;;;;;;5044106;28;20041;-67
2022/03/29 07:24:56;;;;;;;35.83;15.33;;;7.80;99.90;;;;;;5045831;28;20048;-67
2022/03/29 07:27:22;;;;;;;35.87;14.47;;;7.80;99.90;;;;;;5048570;28;20144;-67
2022/03/29 07:29:49;;;;;;;40.13;14.70;;;7.80;99.90;;;;;;5047254;28;20238;-66
2022/03/29 07:32:15;;;;;;;32.20;16.85;;;7.80;99.90;;;;;;5046519;28;20139;-67
2022/03/29 07:34:41;;;;;;;34.83;16.00;;;7.90;99.90;;;;;;5027367;28;20493;-67
2022/03/29 07:37:06;;;;;;;39.90;16.80;;;7.90;99.90;;;;;;5024066;28;20049;-66
2022/03/29 07:39:32;;;;;;;28.03;14.73;;;7.90;99.90;;;;;;5045127;28;20045;-67
2022/03/29 07:41:58;;;;;;;35.87;15.60;;;7.90;99.90;;;;;;5033451;28;20041;-67
2022/03/29 07:44:24;;;;;;;37.77;14.07;;;7.90;99.90;;;;;;5044816;28;20029;-67
2022/03/29 07:46:50;;;;;;;32.58;14.93;;;7.80;99.90;;;;;;5018727;28;20052;-67
2022/03/29 07:49:16;;;;;;;35.28;15.35;;;7.80;99.90;;;;;;5020296;28;20457;-67
2022/03/29 07:51:42;;;;;;;27.98;13.63;;;7.90;99.90;;;;;;5027371;28;20107;-66
2022/03/29 07:54:07;;;;;;;30.70;14.33;;;7.90;99.90;;;;;;5046421;28;20220;-66
2022/03/29 07:56:33;;;;;;;35.53;15.17;;;7.90;99.90;;;;;;5046660;28;20037;-67
2022/03/29 07:58:59;;;;;;;31.80;14.33;;;8.00;99.90;;;;;;5047034;28;20051;-67
2022/03/29 08:01:24;;;;;;;31.25;14.98;;;8.00;99.90;;;;;;5039455;28;20585;-66
2022/03/29 08:03:50;;;;;;;34.13;14.43;;;8.00;99.90;;;;;;5037609;28;20037;-67
2022/03/29 08:06:16;;;;;;;27.33;13.43;;;8.10;99.90;;;;;;5027245;28;20103;-67
2022/03/29 08:08:41;;;;;;;37.93;14.27;;;8.10;99.90;;;;;;5045700;28;20038;-66
2022/03/29 08:11:11;;;;;;;31.37;14.77;;;8.20;99.90;;;;;;5043025;28;20075;-67
2022/03/29 08:13:37;;;;;;;28.05;13.50;;;8.20;99.90;;;;;;5045275;28;20349;-66
2022/03/29 08:16:03;;;;;;;35.20;15.70;;;8.30;99.90;;;;;;5048451;28;20106;-66
2022/03/29 08:18:31;;;;;;;30.95;15.38;;;8.30;99.90;;;;;;5031819;28;20405;-67
2022/03/29 08:20:57;;;;;;;27.73;14.40;;;8.30;99.90;;;;;;5043765;28;20091;-67
2022/03/29 08:23:23;;;;;;;29.70;12.38;;;8.40;99.90;;;;;;5025872;28;20077;-67
2022/03/29 08:25:48;;;;;;;30.77;12.38;;;8.40;99.90;;;;;;5046550;28;20057;-67
2022/03/29 08:28:15;;;;;;;28.20;13.37;;;8.40;99.90;;;;;;5041510;28;20144;-67
2022/03/29 08:30:41;;;;;;;32.25;13.65;;;8.50;99.90;;;;;;5039963;28;20091;-66
2022/03/29 08:33:07;;;;;;;28.75;13.60;;;8.50;99.90;;;;;;5034181;28;20478;-67
2022/03/29 08:35:34;;;;;;;32.55;13.60;;;8.60;99.90;;;;;;5046013;28;20033;-67
2022/03/29 08:38:00;;;;;;;32.38;13.52;;;8.60;99.90;;;;;;5044006;28;20397;-67
2022/03/29 08:40:26;;;;;;;33.38;14.52;;;8.70;99.90;;;;;;5039433;28;20045;-66
2022/03/29 08:42:58;;;;;;;39.03;14.27;;;8.70;99.90;;;;;;5040268;28;20046;-67
2022/03/29 08:45:29;;;;;;;34.97;13.40;;;8.70;99.90;;;;;;5050480;28;20419;-67
2022/03/29 08:47:56;;;;;;;39.50;14.93;;;8.70;99.90;;;;;;5051961;28;20408;-67
2022/03/29 08:50:24;;;;;;;30.45;14.95;;;8.70;99.90;;;;;;5044562;28;20048;-66
2022/03/29 08:52:52;;;;;;;37.65;14.85;;;8.70;99.90;;;;;;5045266;28;20036;-65
2022/03/29 08:55:18;;;;;;;35.97;13.77;;;8.70;99.90;;;;;;5046073;28;20037;-66
2022/03/29 08:57:43;;;;;;;34.50;15.80;;;8.70;99.90;;;;;;5027464;28;20053;-66
2022/03/29 09:00:09;;;;;;;31.40;15.63;;;8.80;99.90;;;;;;5045191;28;20033;-65
2022/03/29 09:02:37;;;;;;;41.47;13.82;;;8.80;99.90;;;;;;5011001;28;20485;-66
2022/03/29 09:05:27;;;;;;;34.33;14.40;;;8.90;99.90;;;;;;5051395;28;20033;-66
2022/03/29 09:08:03;;;;;;;32.00;13.85;;;8.90;99.90;;;;;;5041824;28;20094;-65
2022/03/29 09:10:50;;;;;;;34.90;14.63;;;9.00;99.90;;;;;;5040208;28;20084;-67
2022/03/29 09:13:26;;;;;;;27.98;14.23;;;9.00;99.90;;;;;;5020371;28;20275;-66
2022/03/29 09:16:00;;;;;;;29.45;15.43;;;9.10;99.90;;;;;;5029171;28;20796;-66
2022/03/29 09:18:27;;;;;;;33.22;14.38;;;9.20;99.90;;;;;;5045443;28;20041;-66
2022/03/29 09:21:11;;;;;;;26.85;12.65;;;9.40;99.90;;;;;;5042908;28;20059;-66
2022/03/29 09:23:37;;;;;;;28.42;13.98;;;9.40;99.90;;;;;;5043512;28;20043;-66
2022/03/29 09:26:04;;;;;;;37.97;14.85;;;9.40;99.90;;;;;;5041401;28;20036;-66
2022/03/29 09:28:33;;;;;;;;;;;9.50;99.90;;;;;;5047336;28;20102;-66
2022/03/29 09:30:59;;;;;;;26.20;13.23;;;9.60;99.90;;;;;;5042904;28;19924;-66
2022/03/29 09:33:32;;;;;;;32.03;14.73;;;9.70;99.90;;;;;;5044461;28;20102;-66
2022/03/29 09:36:07;;;;;;;31.30;13.73;;;9.80;99.90;;;;;;5027125;28;20155;-67
2022/03/29 09:38:41;;;;;;;29.63;12.75;;;9.80;99.90;;;;;;5045091;28;20044;-66
2022/03/29 09:41:21;;;;;;;30.95;13.48;;;9.90;99.90;;;;;;5038579;28;20045;-66
2022/03/29 09:44:07;;;;;;;30.20;14.60;;;10.00;99.90;;;;;;5039809;28;20074;-66
2022/03/29 09:47:00;;;;;;;34.15;13.95;;;10.10;99.90;;;;;;5045676;28;20041;-66
2022/03/29 09:49:27;;;;;;;32.00;14.20;;;10.10;99.90;;;;;;5046568;28;20045;-67
2022/03/29 09:52:08;;;;;;;;;;;10.20;99.90;;;;;;5026462;28;20120;-65
2022/03/29 09:54:34;;;;;;;28.15;13.48;;;10.30;99.90;;;;;;5041460;28;20018;-67
2022/03/29 09:57:00;;;;;;;33.20;13.83;;;10.30;99.90;;;;;;5027310;28;20105;-67
2022/03/29 09:59:26;;;;;;;39.17;14.30;;;10.50;99.90;;;;;;5045816;28;20049;-67
2022/03/29 10:01:55;;;;;;;30.70;14.30;;;10.60;99.90;;;;;;5040465;28;20044;-67
2022/03/29 10:04:23;;;;;;;30.27;13.25;;;10.60;99.90;;;;;;5040505;28;20037;-67
2022/03/29 10:06:52;;;;;;;31.30;13.45;;;10.80;99.90;;;;;;5046045;28;20484;-67
2022/03/29 10:09:29;;;;;;;25.42;12.32;;;10.90;99.90;;;;;;5030007;28;20143;-67
2022/03/29 10:11:59;;;;;;;24.38;12.55;;;10.90;99.90;;;;;;5026677;28;20241;-65
2022/03/29 10:14:26;;;;;;;31.08;12.07;;;11.10;99.90;;;;;;5045280;28;20083;-66
2022/03/29 10:16:56;;;;;;;21.88;10.10;;;11.20;99.90;;;;;;5048270;28;20067;-66
2022/03/29 10:19:22;;;;;;;28.63;9.75;;;11.20;99.90;;;;;;5028959;28;20053;-66
2022/03/29 10:21:48;;;;;;;;;;;11.30;99.90;;;;;;5024622;28;20305;-66
2022/03/29 10:24:16;;;;;;;19.80;8.32;;;11.30;99.90;;;;;;5045288;28;19927;-66
2022/03/29 10:26:43;;;;;;;22.85;9.15;;;11.40;99.90;;;;;;5030451;28;20044;-67
2022/03/29 10:29:10;;;;;;;22.63;9.30;;;11.40;99.90;;;;;;5031260;28;20049;-65
2022/03/29 10:31:51;;;;;;;33.53;9.43;;;11.30;99.90;;;;;;5055293;28;20148;-67
2022/03/29 10:34:20;;;;;;;29.55;9.50;;;11.20;99.90;;;;;;5048774;28;20168;-66
2022/03/29 10:37:08;;;;;;;28.50;8.30;;;11.10;99.90;;;;;;5038351;28;20083;-66
2022/03/29 10:39:46;;;;;;;;;;;11.10;99.90;;;;;;5040858;28;20045;-66
2022/03/29 10:42:37;;;;;;;19.13;7.20;;;11.00;99.90;;;;;;5028712;28;19986;-66
2022/03/29 10:45:14;;;;;;;23.85;7.38;;;11.10;99.90;;;;;;5047599;28;20060;-66
2022/03/29 10:47:42;;;;;;;28.08;8.45;;;11.20;99.90;;;;;;5048374;28;20033;-66
2022/03/29 10:50:10;;;;;;;23.20;7.45;;;11.20;99.90;;;;;;5048062;28;20032;-66
2022/03/29 10:52:43;;;;;;;24.33;8.13;;;11.20;99.90;;;;;;5048081;28;20045;-65
2022/03/29 10:55:23;;;;;;;21.75;7.10;;;11.30;99.90;;;;;;5046287;28;20112;-67
2022/03/29 10:58:08;;;;;;;19.98;7.32;;;11.40;99.90;;;;;;5043817;28;20552;-67
2022/03/29 11:00:36;;;;;;;23.80;7.53;;;11.50;99.90;;;;;;5058147;28;20040;-66
2022/03/29 11:03:20;;;;;;;31.63;8.48;;;11.60;99.90;;;;;;5050823;28;20053;-67
2022/03/29 11:06:12;;;;;;;18.73;7.05;;;11.60;99.90;;;;;;5053624;28;20497;-66
2022/03/29 11:08:39;;;;;;;18.48;7.68;;;11.70;99.90;;;;;;5052322;28;20508;-66
2022/03/29 11:11:06;;;;;;;26.15;7.65;;;11.70;99.90;;;;;;5027544;28;20064;-67
2022/03/29 11:13:37;;;;;;;19.60;7.13;;;11.80;99.90;;;;;;5049392;28;20489;-67
2022/03/29 11:16:25;;;;;;;20.27;7.60;;;11.70;99.90;;;;;;5042045;28;20357;-66
2022/03/29 11:18:51;;;;;;;20.02;7.03;;;11.80;99.90;;;;;;5046357;28;20041;-66
2022/03/29 11:21:30;;;;;;;20.98;7.63;;;11.80;99.90;;;;;;5042360;28;20130;-67
2022/03/29 11:23:59;;;;;;;20.77;7.28;;;11.80;99.90;;;;;;5047955;28;20044;-67
2022/03/29 11:26:24;;;;;;;17.52;7.85;;;11.80;99.90;;;;;;5044007;28;20409;-67
2022/03/29 11:28:53;;;;;;;21.63;9.82;;;11.80;99.90;;;;;;5045940;28;20040;-67
2022/03/29 11:31:20;;;;;;;23.95;9.65;;;12.00;99.90;;;;;;5028542;28;20404;-67
2022/03/29 11:33:49;;;;;;;27.77;9.25;;;12.10;99.90;;;;;;5042526;28;20397;-67
2022/03/29 11:36:16;;;;;;;25.40;9.05;;;12.10;99.90;;;;;;5048177;28;20048;-65
2022/03/29 11:38:44;;;;;;;28.33;9.48;;;12.10;99.00;;;;;;5044446;28;20041;-66
2022/03/29 11:41:21;;;;;;;26.58;8.63;;;12.00;98.40;;;;;;5064568;22;20117;-67
2022/03/29 11:43:56;;;;;;;28.58;8.90;;;12.00;97.50;;;;;;5041814;28;20069;-67
2022/03/29 11:46:22;;;;;;;21.23;7.57;;;12.00;98.70;;;;;;5024102;28;20144;-67
2022/03/29 11:48:50;;;;;;;17.80;6.80;;;11.90;99.70;;;;;;5027048;28;20045;-68
2022/03/29 11:51:16;;;;;;;21.73;6.60;;;11.90;99.70;;;;;;5043117;28;20408;-68
2022/03/29 11:53:43;;;;;;;22.13;7.20;;;12.00;99.80;;;;;;5041247;28;20509;-68
2022/03/29 11:56:12;;;;;;;18.55;6.63;;;12.00;99.60;;;;;;5009872;28;20053;-69
2022/03/29 11:58:43;;;;;;;19.48;6.93;;;12.00;99.90;;;;;;5048445;28;20105;-71
2022/03/29 12:01:14;;;;;;;16.63;6.93;;;12.10;99.90;;;;;;5011482;28;20057;-70
2022/03/29 12:03:42;;;;;;;16.95;6.22;;;12.10;99.00;;;;;;5047366;28;20052;-71
2022/03/29 12:06:15;;;;;;;15.93;6.40;;;12.30;99.00;;;;;;5053156;28;20432;-71
2022/03/29 12:08:54;;;;;;;13.20;6.28;;;12.40;98.10;;;;;;5046409;28;20099;-71
2022/03/29 12:11:32;;;;;;;18.50;6.47;;;12.60;97.80;;;;;;5043617;28;20057;-71
2022/03/29 12:14:05;;;;;;;20.92;6.60;;;12.50;97.10;;;;;;5033685;28;20048;-71
2022/03/29 12:16:43;;;;;;;25.83;7.03;;;12.50;96.30;;;;;;5020213;28;20132;-71
2022/03/29 12:19:17;;;;;;;18.58;6.45;;;12.40;95.30;;;;;;5043121;28;20072;-70
2022/03/29 12:21:45;;;;;;;19.77;6.90;;;12.20;96.10;;;;;;5027411;28;20041;-71
2022/03/29 12:24:12;;;;;;;21.08;6.85;;;12.10;96.30;;;;;;5029029;28;20051;-70
2022/03/29 12:27:04;;;;;;;35.53;6.40;;;12.00;97.10;;;;;;5042834;28;20102;-70
2022/03/29 12:29:30;;;;;;;19.50;7.13;;;11.90;96.10;;;;;;5046450;28;20420;-70
2022/03/29 12:31:56;;;;;;;21.60;6.43;;;11.90;97.80;;;;;;5027090;28;20061;-71
2022/03/29 12:34:27;;;;;;;17.13;6.30;;;11.80;97.10;;;;;;5047200;28;20401;-71
2022/03/29 12:36:55;;;;;;;15.70;6.80;;;11.70;97.20;;;;;;5044597;28;20044;-71
2022/03/29 12:39:21;;;;;;;23.08;7.47;;;11.70;98.00;;;;;;5028241;28;20080;-71
2022/03/29 12:41:55;;;;;;;19.92;7.18;;;11.70;98.20;;;;;;5045946;28;20037;-71
2022/03/29 12:44:30;;;;;;;20.27;6.03;;;11.70;98.00;;;;;;5025161;28;20520;-70
2022/03/29 12:46:57;;;;;;;23.63;6.53;;;11.60;98.10;;;;;;5020566;28;20051;-70
2022/03/29 12:49:23;;;;;;;20.55;7.63;;;11.60;97.60;;;;;;5046103;28;20471;-70
2022/03/29 12:51:54;;;;;;;23.55;7.80;;;11.70;97.40;;;;;;5045214;28;20132;-71